Time;durP1;ratioP1;P1;durP2;ratioP2;P2;SDS_P1;SDS_P2;PMS_P1;PMS_P2;Temp;Humidity;BMP_temperature;BMP_pressure;BME280_temperature;BME280_humidity;BME280_pressure;Samples;Min_cycle;Max_cycle;Signal;HPM_P1;HPM_P2
2022/10/15 00:01:14;;;;;;;49.40;29.13;;;11.90;99.90;;;;;;5149399;27;20046;-79
2022/10/15 00:03:41;;;;;;;48.50;28.85;;;12.00;99.90;;;;;;5147611;27;20035;-80
2022/10/15 00:06:13;;;;;;;47.05;29.85;;;12.00;99.90;;;;;;5134741;27;20030;-80
2022/10/15 00:08:40;;;;;;;47.72;29.77;;;11.90;99.90;;;;;;5127901;27;20043;-81
2022/10/15 00:11:12;;;;;;;51.50;31.20;;;12.00;99.90;;;;;;5136277;27;20057;-80
2022/10/15 00:13:39;;;;;;;52.50;28.95;;;11.90;99.90;;;;;;5148601;27;20056;-79
2022/10/15 00:16:08;;;;;;;49.33;29.55;;;12.00;99.90;;;;;;5130844;27;20104;-79
2022/10/15 00:18:34;;;;;;;48.42;30.60;;;11.90;99.90;;;;;;5125872;27;20039;-79
2022/10/15 00:20:59;;;;;;;50.47;31.85;;;11.90;99.90;;;;;;5111537;27;20103;-79
2022/10/15 00:23:25;;;;;;;54.67;30.80;;;11.90;99.90;;;;;;5116296;27;20041;-79
2022/10/15 00:26:09;;;;;;;50.63;31.05;;;11.90;99.90;;;;;;5114523;27;20444;-79
2022/10/15 00:28:34;;;;;;;48.63;31.02;;;12.00;99.90;;;;;;5134072;27;20035;-79
2022/10/15 00:31:09;;;;;;;49.92;31.13;;;12.60;99.90;;;;;;5117535;27;20084;-79
2022/10/15 00:33:35;;;;;;;51.67;31.48;;;11.90;99.90;;;;;;5125150;27;20078;-79
2022/10/15 00:36:06;;;;;;;49.15;30.83;;;11.90;99.90;;;;;;5151439;27;20034;-78
2022/10/15 00:38:32;;;;;;;49.35;30.40;;;11.90;99.90;;;;;;5129027;27;20055;-78
2022/10/15 00:40:58;;;;;;;54.67;29.65;;;11.90;99.90;;;;;;5126053;27;20037;-78
2022/10/15 00:43:44;;;;;;;52.78;30.58;;;11.90;99.90;;;;;;5152442;27;20031;-78
2022/10/15 00:46:28;;;;;;;47.17;30.02;;;11.90;99.90;;;;;;5126618;27;20096;-79
2022/10/15 00:49:16;;;;;;;46.47;28.52;;;11.90;99.90;;;;;;5132654;27;20072;-79
2022/10/15 00:51:48;;;;;;;49.42;29.17;;;11.90;99.90;;;;;;5120493;27;20126;-79
2022/10/15 00:54:14;;;;;;;47.63;29.75;;;11.90;99.90;;;;;;5144338;27;20035;-81
2022/10/15 00:56:43;;;;;;;49.53;29.95;;;11.90;99.90;;;;;;5127546;27;20043;-80
2022/10/15 00:59:11;;;;;;;49.58;30.50;;;11.90;99.90;;;;;;5142352;27;20040;-80
2022/10/15 01:01:37;;;;;;;42.88;28.90;;;11.80;99.90;;;;;;5131902;27;20039;-79
2022/10/15 01:04:06;;;;;;;43.25;29.55;;;11.80;99.90;;;;;;5115478;27;20083;-81
2022/10/15 01:06:32;;;;;;;51.33;29.52;;;11.80;99.90;;;;;;5150188;27;20057;-80
2022/10/15 01:08:58;;;;;;;42.50;29.00;;;11.80;99.90;;;;;;5133688;27;20034;-80
2022/10/15 01:11:33;;;;;;;42.72;29.20;;;11.80;99.90;;;;;;5093373;27;20042;-79
2022/10/15 01:14:15;;;;;;;46.97;29.33;;;11.90;99.90;;;;;;5118900;27;20083;-79
2022/10/15 01:16:55;;;;;;;46.63;28.80;;;11.80;99.90;;;;;;5140384;27;20039;-79
2022/10/15 01:19:49;;;;;;;44.33;27.70;;;11.80;99.90;;;;;;5133520;27;20027;-80
2022/10/15 01:22:49;;;;;;;41.20;26.73;;;11.90;99.90;;;;;;5144595;27;20437;-80
2022/10/15 01:25:36;;;;;;;40.13;27.80;;;11.90;99.90;;;;;;5147402;27;20039;-79
2022/10/15 01:28:19;;;;;;;39.63;26.77;;;11.90;99.90;;;;;;5122733;27;20520;-79
2022/10/15 01:30:51;;;;;;;39.35;26.70;;;11.90;99.90;;;;;;5141545;27;20031;-80
2022/10/15 01:33:26;;;;;;;44.95;26.80;;;11.90;99.90;;;;;;5120877;27;20364;-82
2022/10/15 01:36:18;;;;;;;41.80;27.38;;;11.90;99.90;;;;;;5133510;27;20087;-82
2022/10/15 01:38:57;;;;;;;35.03;26.02;;;11.90;99.90;;;;;;5128557;27;20410;-83
2022/10/15 01:41:42;;;;;;;39.60;26.90;;;11.90;99.90;;;;;;5135368;27;20639;-83
2022/10/15 01:44:31;;;;;;;37.35;25.52;;;11.90;99.90;;;;;;5137567;27;20034;-82
2022/10/15 01:47:02;;;;;;;40.97;25.50;;;11.90;99.90;;;;;;5134952;27;20047;-82
2022/10/15 01:49:33;;;;;;;35.75;24.08;;;11.90;99.90;;;;;;5132439;27;20059;-82
2022/10/15 01:52:07;;;;;;;34.78;24.25;;;11.90;99.90;;;;;;5154706;27;20553;-82
2022/10/15 01:54:34;;;;;;;37.72;24.05;;;11.90;99.90;;;;;;5133122;27;20061;-82
2022/10/15 01:57:01;;;;;;;34.38;23.98;;;11.90;99.90;;;;;;5154808;27;20035;-82
2022/10/15 01:59:30;;;;;;;35.97;24.02;;;11.90;99.90;;;;;;5136783;27;20099;-82
2022/10/15 02:01:57;;;;;;;37.90;23.65;;;11.90;99.90;;;;;;5150066;27;20039;-83
2022/10/15 02:04:30;;;;;;;39.28;24.42;;;11.90;99.90;;;;;;5129044;27;20069;-82
2022/10/15 02:07:05;;;;;;;35.75;23.38;;;11.90;99.90;;;;;;5153592;27;20039;-82
2022/10/15 02:09:50;;;;;;;37.33;24.30;;;11.90;99.90;;;;;;5141978;27;20034;-83
2022/10/15 02:12:27;;;;;;;35.25;23.23;;;11.90;99.90;;;;;;5140346;27;20486;-82
2022/10/15 02:15:00;;;;;;;38.65;24.10;;;11.90;99.90;;;;;;5157408;27;20096;-82
2022/10/15 02:17:46;;;;;;;33.97;23.27;;;11.90;99.90;;;;;;5153534;27;20432;-82
2022/10/15 02:20:23;;;;;;;38.40;23.50;;;11.90;99.90;;;;;;5148970;27;20045;-83
2022/10/15 02:23:05;;;;;;;40.67;24.42;;;11.90;99.90;;;;;;5140966;27;20284;-82
2022/10/15 02:25:34;;;;;;;35.97;23.38;;;11.90;99.90;;;;;;5135215;27;20035;-82
2022/10/15 02:28:02;;;;;;;35.75;24.33;;;11.90;99.90;;;;;;5139386;27;20039;-82
2022/10/15 02:30:30;;;;;;;37.85;24.63;;;11.90;99.90;;;;;;5157965;27;20046;-82
2022/10/15 02:32:58;;;;;;;34.25;23.17;;;11.90;99.90;;;;;;5153285;27;20053;-82
2022/10/15 02:35:25;;;;;;;40.63;24.25;;;11.90;99.90;;;;;;5158120;27;20045;-82
2022/10/15 02:37:53;;;;;;;40.90;23.63;;;11.90;99.90;;;;;;5156030;27;20042;-82
2022/10/15 02:40:26;;;;;;;38.05;23.80;;;11.90;99.90;;;;;;5155230;27;20038;-83
2022/10/15 02:42:53;;;;;;;35.15;24.02;;;11.90;99.90;;;;;;5139079;27;20555;-83
2022/10/15 02:45:20;;;;;;;37.33;24.52;;;11.90;99.90;;;;;;5137438;27;20165;-82
2022/10/15 02:47:46;;;;;;;34.67;23.75;;;11.90;99.90;;;;;;5121614;27;20038;-83
2022/10/15 02:50:11;;;;;;;38.42;24.42;;;11.90;99.90;;;;;;5139580;27;20031;-83
2022/10/15 02:52:37;;;;;;;35.28;25.38;;;11.90;99.90;;;;;;5156689;27;20035;-82
2022/10/15 02:55:03;;;;;;;38.20;25.08;;;12.00;99.90;;;;;;5136975;27;20080;-82
2022/10/15 02:57:28;;;;;;;35.75;24.63;;;11.90;99.90;;;;;;5157050;27;20494;-82
2022/10/15 02:59:54;;;;;;;39.20;25.45;;;11.90;99.90;;;;;;5136553;27;20136;-82
2022/10/15 03:02:20;;;;;;;37.20;25.95;;;11.90;99.90;;;;;;5097522;27;20597;-82
2022/10/15 03:04:45;;;;;;;40.38;25.85;;;11.90;99.90;;;;;;5134291;27;20059;-82
2022/10/15 03:07:13;;;;;;;39.60;25.60;;;11.90;99.90;;;;;;5139494;27;20081;-82
2022/10/15 03:09:38;;;;;;;43.25;26.45;;;11.90;99.90;;;;;;5134434;27;20042;-82
2022/10/15 03:12:04;;;;;;;41.17;26.98;;;11.90;99.90;;;;;;5122144;27;20037;-82
2022/10/15 03:14:30;;;;;;;46.25;28.83;;;11.90;99.90;;;;;;5120796;27;20042;-82
2022/10/15 03:16:56;;;;;;;41.65;28.38;;;11.80;99.90;;;;;;5111810;27;20038;-82
2022/10/15 03:19:22;;;;;;;42.13;28.33;;;11.80;99.90;;;;;;5156053;27;20039;-83
2022/10/15 03:21:49;;;;;;;42.55;28.17;;;11.80;99.90;;;;;;5102785;27;20495;-82
2022/10/15 03:24:15;;;;;;;50.67;30.17;;;11.80;99.90;;;;;;5115291;27;20073;-82
2022/10/15 03:26:41;;;;;;;52.90;30.15;;;11.80;99.90;;;;;;5113305;27;20035;-83
2022/10/15 03:29:08;;;;;;;46.75;29.17;;;11.80;99.90;;;;;;5140071;27;20038;-82
2022/10/15 03:31:33;;;;;;;57.85;31.13;;;11.80;99.90;;;;;;5127098;27;20030;-83
2022/10/15 03:33:59;;;;;;;50.55;31.15;;;11.80;99.90;;;;;;5149150;27;20027;-83
2022/10/15 03:36:25;;;;;;;51.42;33.30;;;11.80;99.90;;;;;;5151472;27;20038;-82
2022/10/15 03:38:50;;;;;;;53.20;33.95;;;11.80;99.90;;;;;;5136456;27;20066;-82
2022/10/15 03:41:16;;;;;;;55.88;33.35;;;11.70;99.90;;;;;;5136348;27;20037;-82
2022/10/15 03:43:42;;;;;;;61.10;35.38;;;11.70;99.90;;;;;;5132602;27;20540;-82
2022/10/15 03:46:07;;;;;;;61.58;37.28;;;11.70;99.90;;;;;;5150581;27;20031;-83
2022/10/15 03:48:33;;;;;;;55.28;35.33;;;11.70;99.90;;;;;;5114777;27;20509;-82
2022/10/15 03:50:59;;;;;;;60.17;36.58;;;11.70;99.90;;;;;;5116133;27;20039;-82
2022/10/15 03:53:24;;;;;;;67.38;37.47;;;11.70;99.90;;;;;;5118511;27;20031;-84
2022/10/15 03:55:50;;;;;;;67.43;37.88;;;11.70;99.90;;;;;;5137487;27;20050;-82
2022/10/15 03:58:16;;;;;;;62.60;37.92;;;11.70;99.90;;;;;;5154987;27;20064;-82
2022/10/15 04:00:43;;;;;;;73.53;39.67;;;11.70;99.90;;;;;;5155390;27;20054;-83
2022/10/15 04:03:09;;;;;;;70.05;38.30;;;11.80;99.90;;;;;;5150284;27;20390;-82
2022/10/15 04:05:35;;;;;;;67.50;38.95;;;11.80;99.90;;;;;;5138255;27;20125;-82
2022/10/15 04:08:01;;;;;;;67.93;39.17;;;11.80;99.90;;;;;;5138531;27;20052;-82
2022/10/15 04:10:28;;;;;;;65.88;38.33;;;11.70;99.90;;;;;;5112258;27;20031;-83
2022/10/15 04:12:54;;;;;;;61.63;37.20;;;11.80;99.90;;;;;;5137250;27;20035;-82
2022/10/15 04:15:19;;;;;;;66.88;39.40;;;11.80;99.90;;;;;;5137803;27;20042;-83
2022/10/15 04:17:45;;;;;;;70.05;39.03;;;11.80;99.90;;;;;;5137848;27;20363;-82
2022/10/15 04:20:11;;;;;;;64.32;39.28;;;11.80;99.90;;;;;;5137371;27;20490;-81
2022/10/15 04:22:37;;;;;;;78.65;41.17;;;11.80;99.90;;;;;;5153725;27;20095;-83
2022/10/15 04:25:03;;;;;;;70.78;39.33;;;11.80;99.90;;;;;;5137283;27;20096;-83
2022/10/15 04:27:28;;;;;;;70.95;39.17;;;11.80;99.90;;;;;;5134346;27;20035;-83
2022/10/15 04:29:54;;;;;;;64.10;38.40;;;11.70;99.90;;;;;;5154057;27;20039;-83
2022/10/15 04:32:20;;;;;;;72.68;39.42;;;12.00;99.90;;;;;;5135991;27;20060;-83
2022/10/15 04:34:46;;;;;;;65.32;37.92;;;11.70;99.90;;;;;;5121692;27;20085;-83
2022/10/15 04:37:12;;;;;;;66.53;37.75;;;11.70;99.90;;;;;;5137889;27;20475;-82
2022/10/15 04:39:38;;;;;;;65.95;38.22;;;11.70;99.90;;;;;;5137636;27;20063;-82
2022/10/15 04:42:04;;;;;;;62.63;37.55;;;11.70;99.90;;;;;;5154544;27;20049;-83
2022/10/15 04:44:29;;;;;;;65.45;39.15;;;11.70;99.90;;;;;;5146991;27;20475;-82
2022/10/15 04:46:55;;;;;;;68.63;38.97;;;11.70;99.90;;;;;;5154309;27;20103;-82
2022/10/15 04:49:21;;;;;;;66.30;38.20;;;11.70;99.90;;;;;;5147057;27;20042;-82
2022/10/15 04:51:47;;;;;;;70.35;37.45;;;11.70;99.90;;;;;;5149410;27;20031;-83
2022/10/15 04:54:13;;;;;;;76.05;41.22;;;11.70;99.90;;;;;;5120189;27;20099;-82
2022/10/15 04:56:38;;;;;;;76.93;40.72;;;11.70;99.90;;;;;;5130168;27;20074;-82
2022/10/15 04:59:08;;;;;;;72.22;40.05;;;11.70;99.90;;;;;;5119127;27;20111;-82
2022/10/15 05:01:34;;;;;;;81.32;42.80;;;11.70;99.90;;;;;;5131349;27;20059;-82
2022/10/15 05:03:59;;;;;;;79.38;40.75;;;11.80;99.90;;;;;;5126967;27;20059;-82
2022/10/15 05:06:25;;;;;;;72.75;38.95;;;11.70;99.90;;;;;;5098902;27;20118;-82
2022/10/15 05:08:51;;;;;;;81.28;41.13;;;11.80;99.90;;;;;;5120262;27;20091;-82
2022/10/15 05:11:19;;;;;;;80.68;41.33;;;11.80;99.90;;;;;;5119718;27;20062;-82
2022/10/15 05:13:45;;;;;;;76.55;41.00;;;11.80;99.90;;;;;;5131039;27;20043;-81
2022/10/15 05:16:20;;;;;;;76.10;40.35;;;11.80;99.90;;;;;;5153089;27;20042;-82
2022/10/15 05:18:47;;;;;;;80.22;41.80;;;11.80;99.90;;;;;;5118281;27;20122;-81
2022/10/15 05:21:14;;;;;;;80.45;41.50;;;11.80;99.90;;;;;;5152894;27;20095;-82
2022/10/15 05:23:40;;;;;;;74.88;38.53;;;11.90;99.90;;;;;;5125469;27;20050;-81
2022/10/15 05:26:09;;;;;;;83.03;41.15;;;11.90;99.90;;;;;;5136403;27;20490;-83
2022/10/15 05:28:35;;;;;;;84.30;42.17;;;11.90;99.90;;;;;;5116264;27;20495;-83
2022/10/15 05:31:21;;;;;;;79.72;42.88;;;11.90;99.90;;;;;;5133039;27;20171;-83
2022/10/15 05:33:49;;;;;;;79.95;42.00;;;11.90;99.90;;;;;;5130668;27;20038;-82
2022/10/15 05:36:20;;;;;;;74.13;41.00;;;11.90;99.90;;;;;;5153788;27;20423;-82
2022/10/15 05:39:01;;;;;;;77.80;41.10;;;11.90;99.90;;;;;;5135859;27;20039;-82
2022/10/15 05:41:27;;;;;;;73.25;40.00;;;12.00;99.90;;;;;;5137119;27;20038;-82
2022/10/15 05:43:55;;;;;;;71.35;39.80;;;12.00;99.90;;;;;;5118528;27;20047;-82
2022/10/15 05:46:22;;;;;;;71.97;40.28;;;12.00;99.90;;;;;;5136543;27;20107;-82
2022/10/15 05:48:49;;;;;;;68.55;39.58;;;12.00;99.90;;;;;;5150467;27;20402;-81
2022/10/15 05:51:15;;;;;;;81.93;41.35;;;12.00;99.90;;;;;;5136156;27;20041;-81
2022/10/15 05:53:42;;;;;;;69.88;38.10;;;12.00;99.90;;;;;;5130475;27;20047;-82
2022/10/15 05:56:08;;;;;;;78.00;41.05;;;12.00;99.90;;;;;;5127844;27;20043;-82
2022/10/15 05:58:35;;;;;;;67.35;38.80;;;12.00;99.90;;;;;;5154822;27;20049;-82
2022/10/15 06:01:03;;;;;;;71.60;40.20;;;12.10;99.90;;;;;;5154055;27;20039;-82
2022/10/15 06:03:29;;;;;;;74.25;40.22;;;12.10;99.90;;;;;;5154681;27;20069;-82
2022/10/15 06:05:55;;;;;;;68.78;39.05;;;12.10;99.90;;;;;;5136534;27;20043;-82
2022/10/15 06:08:21;;;;;;;70.53;39.47;;;12.10;99.90;;;;;;5135820;27;20406;-83
2022/10/15 06:10:48;;;;;;;70.10;38.08;;;12.10;99.90;;;;;;5113058;27;20035;-82
2022/10/15 06:13:14;;;;;;;68.13;37.83;;;12.10;99.90;;;;;;5153440;27;20031;-83
2022/10/15 06:15:41;;;;;;;73.75;39.20;;;12.10;99.90;;;;;;5136809;27;20043;-83
2022/10/15 06:18:10;;;;;;;69.97;39.97;;;12.10;99.90;;;;;;5136192;27;20039;-84
2022/10/15 06:20:36;;;;;;;69.43;38.95;;;12.10;99.90;;;;;;5146891;27;20465;-84
2022/10/15 06:23:03;;;;;;;68.03;39.17;;;12.20;99.90;;;;;;5132755;27;20486;-82
2022/10/15 06:25:29;;;;;;;65.13;37.17;;;12.20;99.90;;;;;;5129159;27;20039;-84
2022/10/15 06:27:55;;;;;;;71.78;40.20;;;12.10;99.90;;;;;;5137401;27;20038;-83
2022/10/15 06:30:21;;;;;;;65.85;36.60;;;12.10;99.90;;;;;;5098292;28;20035;-83
2022/10/15 06:32:51;;;;;;;69.25;38.88;;;12.20;99.90;;;;;;5134333;27;20066;-83
2022/10/15 06:35:18;;;;;;;62.60;36.90;;;12.20;99.90;;;;;;5136588;27;20031;-82
2022/10/15 06:37:44;;;;;;;74.65;39.47;;;12.20;99.90;;;;;;5146781;27;20102;-84
2022/10/15 06:40:10;;;;;;;68.30;37.50;;;12.20;99.90;;;;;;5134945;27;20474;-83
2022/10/15 06:42:36;;;;;;;70.82;38.75;;;12.20;99.90;;;;;;5151678;27;20130;-84
2022/10/15 06:45:03;;;;;;;66.00;37.35;;;12.50;99.90;;;;;;5136143;27;20070;-83
2022/10/15 06:47:28;;;;;;;65.70;37.08;;;12.20;99.90;;;;;;5136514;27;20034;-83
2022/10/15 06:49:54;;;;;;;68.53;37.00;;;12.20;99.90;;;;;;5130710;27;20061;-85
2022/10/15 06:52:20;;;;;;;63.75;37.05;;;12.20;99.90;;;;;;5117609;27;20114;-82
2022/10/15 06:54:46;;;;;;;66.18;37.15;;;12.20;99.90;;;;;;5151443;27;20393;-83
2022/10/15 06:57:12;;;;;;;63.85;38.80;;;12.20;99.90;;;;;;5122614;27;20074;-82
2022/10/15 06:59:37;;;;;;;62.80;38.22;;;12.30;99.90;;;;;;5132206;27;20043;-83
2022/10/15 07:02:03;;;;;;;70.53;39.55;;;12.30;99.90;;;;;;5136250;27;20043;-84
2022/10/15 07:04:29;;;;;;;69.28;38.17;;;12.30;99.90;;;;;;5118218;27;20082;-85
2022/10/15 07:06:54;;;;;;;67.00;39.55;;;12.30;99.90;;;;;;5157210;27;20047;-84
2022/10/15 07:09:20;;;;;;;67.28;39.53;;;12.30;99.90;;;;;;5140912;27;20386;-84
2022/10/15 07:11:46;;;;;;;64.00;38.63;;;12.30;99.90;;;;;;5116877;27;20039;-81
2022/10/15 07:14:11;;;;;;;66.80;39.42;;;12.20;99.90;;;;;;5116425;27;20035;-84
2022/10/15 07:16:40;;;;;;;69.93;39.53;;;12.30;99.90;;;;;;5118342;27;20042;-83
2022/10/15 07:19:06;;;;;;;70.80;40.58;;;12.30;99.90;;;;;;5118916;27;20032;-83
2022/10/15 07:21:31;;;;;;;63.58;38.97;;;12.20;99.90;;;;;;5121778;27;20048;-83
2022/10/15 07:23:59;;;;;;;73.22;40.10;;;12.30;99.90;;;;;;5153935;27;20072;-83
2022/10/15 07:26:28;;;;;;;71.63;40.58;;;12.20;99.90;;;;;;5135830;27;20063;-82
2022/10/15 07:28:54;;;;;;;74.32;41.53;;;12.30;99.90;;;;;;5118507;27;20111;-82
2022/10/15 07:31:20;;;;;;;75.50;40.72;;;12.20;99.90;;;;;;5118328;27;20058;-83
2022/10/15 07:33:45;;;;;;;71.55;40.92;;;12.30;99.90;;;;;;5136081;27;20590;-82
2022/10/15 07:36:11;;;;;;;74.72;41.80;;;12.30;99.90;;;;;;5156130;27;20467;-82
2022/10/15 07:38:39;;;;;;;68.30;39.92;;;12.30;99.90;;;;;;5153754;27;20371;-83
2022/10/15 07:41:06;;;;;;;72.63;40.97;;;12.30;99.90;;;;;;5138434;27;20412;-82
2022/10/15 07:43:33;;;;;;;75.82;42.88;;;12.40;99.90;;;;;;5117611;27;20042;-84
2022/10/15 07:45:59;;;;;;;68.93;41.08;;;12.40;99.90;;;;;;5132348;27;20030;-84
2022/10/15 07:48:25;;;;;;;71.90;41.63;;;12.40;99.90;;;;;;5135654;27;20023;-84
2022/10/15 07:50:58;;;;;;;68.47;40.45;;;12.40;99.90;;;;;;5120975;27;20048;-84
2022/10/15 07:53:24;;;;;;;69.85;42.15;;;12.50;99.90;;;;;;5135662;27;20031;-84
2022/10/15 07:55:50;;;;;;;75.22;43.95;;;12.50;99.90;;;;;;5135897;27;20045;-85
2022/10/15 07:58:16;;;;;;;78.85;42.22;;;12.50;99.90;;;;;;5104141;27;20119;-85
2022/10/15 08:00:42;;;;;;;91.07;44.92;;;12.50;99.90;;;;;;5140440;27;20052;-83
2022/10/15 08:03:08;;;;;;;88.45;42.95;;;12.60;99.90;;;;;;5140615;27;20098;-84
2022/10/15 08:05:34;;;;;;;84.13;41.05;;;12.60;99.90;;;;;;5142170;27;20143;-84
2022/10/15 08:08:00;;;;;;;94.35;45.67;;;12.60;99.90;;;;;;5149527;27;20118;-84
2022/10/15 08:10:26;;;;;;;90.22;44.33;;;12.70;99.90;;;;;;5130006;27;20073;-85
2022/10/15 08:12:52;;;;;;;85.68;44.17;;;12.60;99.90;;;;;;5120841;27;20050;-84
2022/10/15 08:15:18;;;;;;;82.72;44.63;;;12.70;99.90;;;;;;5130168;27;20490;-85
2022/10/15 08:17:43;;;;;;;89.93;45.13;;;12.70;99.90;;;;;;5131834;27;20095;-84
2022/10/15 08:20:10;;;;;;;90.22;45.10;;;12.70;99.90;;;;;;5131821;27;20125;-85
2022/10/15 08:22:35;;;;;;;93.35;44.75;;;12.70;99.90;;;;;;5116800;27;20075;-84
2022/10/15 08:25:01;;;;;;;92.38;45.22;;;12.70;99.90;;;;;;5116655;27;20131;-85
2022/10/15 08:27:27;;;;;;;77.30;39.20;;;12.70;99.90;;;;;;5131928;27;20107;-84
2022/10/15 08:29:52;;;;;;;98.88;45.40;;;12.70;99.90;;;;;;5117839;27;20034;-83
2022/10/15 08:32:18;;;;;;;90.57;42.38;;;12.70;99.90;;;;;;5132283;27;20042;-84
2022/10/15 08:34:44;;;;;;;91.18;41.45;;;12.80;99.90;;;;;;5115656;27;20035;-83
2022/10/15 08:37:10;;;;;;;83.30;39.97;;;12.80;99.90;;;;;;5132185;27;20035;-85
2022/10/15 08:39:36;;;;;;;80.00;39.13;;;12.90;99.90;;;;;;5118717;27;20106;-84
2022/10/15 08:42:05;;;;;;;81.97;38.72;;;12.80;99.90;;;;;;5135342;27;20042;-83
2022/10/15 08:44:58;;;;;;;78.85;38.25;;;12.80;99.90;;;;;;5133064;27;20042;-84
2022/10/15 08:47:33;;;;;;;69.25;36.47;;;12.80;99.90;;;;;;5127144;27;20039;-83
2022/10/15 08:50:03;;;;;;;68.53;37.63;;;12.90;99.90;;;;;;5132609;27;20039;-83
2022/10/15 08:52:49;;;;;;;63.90;35.40;;;12.90;99.90;;;;;;5150102;27;20621;-83
2022/10/15 08:55:20;;;;;;;64.25;34.47;;;12.90;99.90;;;;;;5148344;27;20047;-84
2022/10/15 08:58:12;;;;;;;61.78;32.60;;;12.90;99.90;;;;;;5147898;27;20482;-84
2022/10/15 09:01:00;;;;;;;55.63;30.58;;;13.00;99.90;;;;;;5146529;27;20096;-83
2022/10/15 09:03:51;;;;;;;46.78;28.58;;;13.00;99.90;;;;;;5150812;27;20545;-84
2022/10/15 09:06:43;;;;;;;49.38;28.65;;;13.00;99.90;;;;;;5130532;27;20043;-84
2022/10/15 09:09:34;;;;;;;41.30;25.92;;;13.10;99.90;;;;;;5140996;27;20035;-84
2022/10/15 09:12:11;;;;;;;41.92;26.42;;;13.10;99.90;;;;;;5149834;27;20031;-84
2022/10/15 09:14:41;;;;;;;38.67;24.83;;;13.10;99.90;;;;;;5148612;27;20488;-83
2022/10/15 09:17:20;;;;;;;36.08;23.90;;;13.10;99.90;;;;;;5141552;27;20503;-83
2022/10/15 09:19:50;;;;;;;36.83;23.60;;;13.20;99.90;;;;;;5126421;27;20079;-83
2022/10/15 09:22:18;;;;;;;37.15;23.05;;;13.20;99.90;;;;;;5146074;27;21811;-83
2022/10/15 09:24:44;;;;;;;39.10;24.42;;;13.30;99.90;;;;;;5126155;27;20103;-83
2022/10/15 09:27:26;;;;;;;35.92;22.60;;;13.40;99.90;;;;;;5115775;27;20415;-83
2022/10/15 09:30:24;;;;;;;33.53;21.20;;;13.50;99.90;;;;;;5142132;27;20031;-83
2022/10/15 09:33:02;;;;;;;29.80;18.17;;;13.60;99.90;;;;;;5145707;27;20057;-83
2022/10/15 09:35:34;;;;;;;27.17;19.38;;;13.60;99.90;;;;;;5142296;27;20027;-83
2022/10/15 09:38:20;;;;;;;26.05;17.75;;;13.70;99.90;;;;;;5124730;27;20068;-83
2022/10/15 09:41:00;;;;;;;24.83;17.92;;;13.70;99.90;;;;;;5129837;27;20470;-82
2022/10/15 09:43:35;;;;;;;23.05;17.13;;;13.80;99.90;;;;;;5127539;27;20043;-83
2022/10/15 09:46:04;;;;;;;26.15;18.10;;;13.80;99.90;;;;;;5135242;27;20086;-83
2022/10/15 09:48:35;;;;;;;24.42;18.02;;;13.90;99.90;;;;;;5135762;27;20378;-84
2022/10/15 09:51:26;;;;;;;25.67;17.60;;;13.90;99.90;;;;;;5154400;27;20077;-83
2022/10/15 09:53:58;;;;;;;27.35;18.70;;;14.00;99.90;;;;;;5136519;27;20026;-84
2022/10/15 09:56:34;;;;;;;29.10;18.73;;;14.00;99.90;;;;;;5137082;27;20035;-83
2022/10/15 09:59:00;;;;;;;25.77;17.67;;;14.00;99.90;;;;;;5139233;27;20057;-86
2022/10/15 10:01:28;;;;;;;22.85;16.20;;;14.00;99.90;;;;;;5112889;27;20035;-85
2022/10/15 10:04:15;;;;;;;26.05;17.98;;;14.00;99.90;;;;;;5166107;27;20038;-85
2022/10/15 10:06:51;;;;;;;26.08;17.98;;;14.10;99.90;;;;;;5140850;27;20043;-85
2022/10/15 10:09:39;;;;;;;25.83;19.13;;;14.30;99.90;;;;;;5151616;27;20406;-85
2022/10/15 10:12:07;;;;;;;28.00;18.80;;;14.40;99.90;;;;;;5120717;27;20054;-84
2022/10/15 10:14:51;;;;;;;27.70;17.77;;;14.50;99.90;;;;;;5155035;27;20532;-85
2022/10/15 10:17:22;;;;;;;26.00;18.10;;;14.60;99.90;;;;;;5123851;27;20412;-85
2022/10/15 10:20:09;;;;;;;25.35;18.02;;;14.60;99.90;;;;;;5154701;27;20153;-85
2022/10/15 10:22:54;;;;;;;28.00;19.02;;;14.60;99.90;;;;;;5155654;27;20049;-85
2022/10/15 10:25:25;;;;;;;26.40;18.77;;;14.60;99.90;;;;;;5142592;27;20103;-82
2022/10/15 10:27:53;;;;;;;27.33;19.10;;;14.60;99.90;;;;;;5121621;27;20057;-84
2022/10/15 10:30:19;;;;;;;26.15;19.80;;;14.60;99.90;;;;;;5138678;27;20043;-85
2022/10/15 10:32:45;;;;;;;26.52;19.20;;;14.60;99.90;;;;;;5124274;27;20030;-85
2022/10/15 10:35:23;;;;;;;29.08;20.75;;;14.60;99.90;;;;;;5142769;27;20069;-87
2022/10/15 10:37:49;;;;;;;29.67;18.38;;;14.60;99.90;;;;;;5138273;27;20433;-83
2022/10/15 10:40:28;;;;;;;28.80;19.45;;;14.60;99.90;;;;;;5132284;27;20030;-84
2022/10/15 10:43:16;;;;;;;26.00;19.33;;;14.60;99.90;;;;;;5135765;27;20035;-85
2022/10/15 10:46:13;;;;;;;24.33;17.73;;;14.60;99.90;;;;;;5141115;27;20045;-86
2022/10/15 10:48:39;;;;;;;28.10;20.50;;;14.60;99.90;;;;;;5138251;27;20046;-86
2022/10/15 10:51:07;;;;;;;27.90;20.45;;;14.60;99.90;;;;;;5131690;27;20038;-85
2022/10/15 10:53:37;;;;;;;26.50;19.38;;;14.70;99.90;;;;;;5137734;27;20039;-86
2022/10/15 10:56:05;;;;;;;26.20;18.95;;;14.70;99.90;;;;;;5121278;27;20047;-85
2022/10/15 10:58:33;;;;;;;25.83;19.08;;;14.80;99.90;;;;;;5121357;27;20043;-86
2022/10/15 11:00:59;;;;;;;26.65;18.58;;;14.90;99.90;;;;;;5154685;27;20046;-86
2022/10/15 11:03:30;;;;;;;24.92;18.38;;;14.90;99.90;;;;;;5125247;27;20043;-86
2022/10/15 11:06:09;;;;;;;23.25;17.58;;;14.90;99.90;;;;;;5141548;27;20078;-86
2022/10/15 11:09:02;;;;;;;25.45;17.27;;;14.90;99.90;;;;;;5159295;27;20049;-86
2022/10/15 11:11:56;;;;;;;22.75;16.23;;;14.90;99.90;;;;;;5141835;27;20065;-87
2022/10/15 11:14:39;;;;;;;25.08;17.80;;;15.00;99.90;;;;;;5158182;27;20133;-86
2022/10/15 11:17:07;;;;;;;22.60;17.98;;;14.90;99.90;;;;;;5138330;27;20035;-86
2022/10/15 11:20:02;;;;;;;27.27;18.85;;;14.90;99.90;;;;;;5120943;27;20042;-86
2022/10/15 11:22:50;;;;;;;23.73;17.50;;;14.90;99.90;;;;;;5137685;27;20047;-87
2022/10/15 11:25:31;;;;;;;24.17;17.55;;;14.90;99.90;;;;;;5139328;27;20541;-87
2022/10/15 11:28:35;;;;;;;23.75;18.98;;;14.90;99.90;;;;;;5137585;27;20133;-87
2022/10/15 11:31:36;;;;;;;26.75;18.20;;;14.90;99.90;;;;;;5159416;27;20050;-87
2022/10/15 11:34:02;;;;;;;22.83;17.27;;;14.90;99.90;;;;;;5106980;27;20043;-86
2022/10/15 11:36:43;;;;;;;25.92;18.08;;;14.90;99.90;;;;;;5142056;27;20168;-86
2022/10/15 11:39:53;;;;;;;23.90;18.42;;;15.00;99.90;;;;;;5141768;27;20039;-86
2022/10/15 11:42:44;;;;;;;22.70;17.50;;;15.10;99.90;;;;;;5159141;27;20061;-86
2022/10/15 11:45:28;;;;;;;23.38;17.83;;;15.10;99.90;;;;;;5137376;27;20187;-86
2022/10/15 11:48:21;;;;;;;23.23;17.23;;;15.10;99.90;;;;;;5141430;27;20068;-86
2022/10/15 11:50:53;;;;;;;23.58;17.17;;;15.20;99.90;;;;;;5115072;27;20046;-86
2022/10/15 11:53:34;;;;;;;27.23;19.35;;;15.20;99.90;;;;;;5133326;27;20046;-86
2022/10/15 11:56:12;;;;;;;22.92;17.20;;;15.30;99.90;;;;;;5121374;27;20047;-86
2022/10/15 11:59:13;;;;;;;19.35;15.65;;;15.30;99.90;;;;;;5138552;27;20035;-86
2022/10/15 12:01:59;;;;;;;20.80;16.95;;;15.30;99.90;;;;;;5121043;27;20047;-86
2022/10/15 12:04:59;;;;;;;22.17;16.13;;;15.20;99.90;;;;;;5120697;27;20083;-85
2022/10/15 12:07:29;;;;;;;23.52;16.73;;;15.20;99.90;;;;;;5102527;27;20507;-86
2022/10/15 12:10:04;;;;;;;23.60;17.30;;;15.10;99.90;;;;;;5149329;27;20034;-86
2022/10/15 12:13:17;;;;;;;24.08;17.98;;;15.20;99.90;;;;;;5158114;27;20042;-86
2022/10/15 12:16:04;;;;;;;23.02;17.15;;;15.10;99.90;;;;;;5099127;28;20057;-85
2022/10/15 12:18:36;;;;;;;27.67;18.45;;;15.20;99.90;;;;;;5082552;28;20387;-85
2022/10/15 12:21:01;;;;;;;23.38;17.00;;;15.10;99.90;;;;;;5123876;27;20483;-86
2022/10/15 12:23:36;;;;;;;26.83;17.85;;;15.10;99.90;;;;;;5124251;27;20074;-86
2022/10/15 12:26:22;;;;;;;26.02;17.25;;;15.20;99.90;;;;;;5148247;27;20049;-86
2022/10/15 12:28:50;;;;;;;27.03;18.17;;;15.10;99.90;;;;;;5179438;27;20035;-85
2022/10/15 12:31:19;;;;;;;24.70;16.92;;;15.10;99.90;;;;;;5161012;27;20268;-85
2022/10/15 12:33:53;;;;;;;24.25;17.50;;;15.10;99.90;;;;;;5144085;27;20129;-86
2022/10/15 12:36:29;;;;;;;19.55;13.93;;;15.00;99.90;;;;;;5159082;27;20034;-87
2022/10/15 12:39:22;;;;;;;23.60;16.20;;;15.10;99.90;;;;;;5158461;27;20049;-86
2022/10/15 12:41:49;;;;;;;24.30;15.93;;;15.10;99.90;;;;;;5140492;27;20030;-86
2022/10/15 12:44:23;;;;;;;21.25;15.32;;;15.00;99.90;;;;;;5124054;27;20043;-86
2022/10/15 12:46:49;;;;;;;18.13;12.93;;;15.10;99.90;;;;;;5158201;27;20049;-86
2022/10/15 12:49:31;;;;;;;19.63;13.77;;;15.10;99.90;;;;;;5157626;27;20114;-86
2022/10/15 12:51:58;;;;;;;17.67;12.82;;;15.00;99.90;;;;;;5140914;27;20078;-86